createdAt,value
2022-10-21T00:00:41.587Z,100543.09
2022-10-21T00:03:09.473Z,100537.84
2022-10-21T00:05:36.443Z,100528.75
2022-10-21T00:08:03.618Z,100534.03
2022-10-21T00:10:30.530Z,100521.31
2022-10-21T00:12:57.523Z,100523.50
2022-10-21T00:15:24.533Z,100524.22
2022-10-21T00:17:51.464Z,100529.75
2022-10-21T00:20:18.951Z,100525.94
2022-10-21T00:22:46.083Z,100505.47
2022-10-21T00:25:13.002Z,100504.34
2022-10-21T00:27:40.367Z,100508.25
2022-10-21T00:30:08.926Z,100508.84
2022-10-21T00:32:36.224Z,100500.03
2022-10-21T00:35:05.268Z,100502.59
2022-10-21T00:37:33.376Z,100505.53
2022-10-21T00:40:00.272Z,100508.84
2022-10-21T00:42:43.790Z,100504.06
2022-10-21T00:45:27.500Z,100514.56
2022-10-21T00:48:00.946Z,100514.19
2022-10-21T00:50:50.297Z,100503.25
2022-10-21T00:53:18.468Z,100504.97
2022-10-21T00:55:54.428Z,100496.88
2022-10-21T00:58:25.664Z,100496.78
2022-10-21T01:00:56.337Z,100496.69
2022-10-21T01:03:26.139Z,100475.84
2022-10-21T01:05:54.369Z,100472.34
2022-10-21T01:08:21.345Z,100471.59
2022-10-21T01:10:48.351Z,100466.81
2022-10-21T01:13:52.499Z,100466.41
2022-10-21T01:16:48.820Z,100463.59
2022-10-21T01:19:58.090Z,100473.25
2022-10-21T01:22:27.780Z,100457.75
2022-10-21T01:24:59.922Z,100457.50
2022-10-21T01:27:42.001Z,100457.34
2022-10-21T01:30:16.629Z,100450.00
2022-10-21T01:33:20.826Z,100445.16
2022-10-21T01:35:50.505Z,100443.19
2022-10-21T01:38:38.632Z,100428.97
2022-10-21T01:41:21.038Z,100426.84
2022-10-21T01:44:09.521Z,100431.13
2022-10-21T01:46:52.700Z,100425.88
2022-10-21T01:49:37.091Z,100419.22
2022-10-21T01:52:04.943Z,100419.22
2022-10-21T01:54:38.414Z,100415.66
2022-10-21T01:57:08.118Z,100414.41
2022-10-21T01:59:37.094Z,100412.84
2022-10-21T02:02:06.892Z,100414.25
2022-10-21T02:04:36.591Z,100413.84
2022-10-21T02:07:03.654Z,100394.38
2022-10-21T02:12:03.794Z,100401.66
2022-10-21T02:14:52.250Z,100394.78
2022-10-21T02:17:22.304Z,100401.91
2022-10-21T02:19:49.613Z,100394.78
2022-10-21T02:22:22.043Z,100372.50
2022-10-21T02:25:31.903Z,100369.66
2022-10-21T02:27:59.138Z,100373.19
2022-10-21T02:30:27.458Z,100367.69
2022-10-21T02:33:05.456Z,100374.91
2022-10-21T02:35:46.413Z,100385.44
2022-10-21T02:38:42.627Z,100388.88
2022-10-21T02:41:13.646Z,100388.88
2022-10-21T02:43:57.113Z,100397.28
2022-10-21T02:46:25.101Z,100393.16
2022-10-21T02:48:53.322Z,100395.03
2022-10-21T02:51:20.544Z,100390.47
2022-10-21T02:53:47.439Z,100384.50
2022-10-21T02:56:14.492Z,100377.13
2022-10-21T02:58:41.446Z,100375.72
2022-10-21T03:01:08.421Z,100379.72
2022-10-21T03:03:35.366Z,100370.31
2022-10-21T03:06:02.314Z,100367.91
2022-10-21T03:08:29.281Z,100371.91
2022-10-21T03:10:56.590Z,100362.38
2022-10-21T03:13:23.878Z,100357.66
2022-10-21T03:15:51.432Z,100349.69
2022-10-21T03:18:19.199Z,100353.56
2022-10-21T03:20:50.324Z,100351.09
2022-10-21T03:23:21.068Z,100346.41
2022-10-21T03:25:48.254Z,100344.28
2022-10-21T03:28:15.438Z,100336.56
2022-10-21T03:30:42.414Z,100331.88
2022-10-21T03:33:09.308Z,100332.31
2022-10-21T03:35:36.294Z,100324.88
2022-10-21T03:38:03.271Z,100321.91
2022-10-21T03:40:30.549Z,100328.59
2022-10-21T03:42:58.712Z,100309.66
2022-10-21T03:45:26.513Z,100315.63
2022-10-21T03:47:53.431Z,100300.09
2022-10-21T03:50:23.642Z,100299.97
2022-10-21T03:52:52.411Z,100307.22
2022-10-21T03:55:20.905Z,100302.81
2022-10-21T03:57:48.712Z,100313.19
2022-10-21T04:00:16.633Z,100326.59
2022-10-21T04:02:43.937Z,100313.50
2022-10-21T04:05:11.251Z,100324.72
2022-10-21T04:07:38.943Z,100323.03
2022-10-21T04:10:07.436Z,100321.19
2022-10-21T04:12:34.760Z,100322.19
2022-10-21T04:15:01.784Z,100317.75
2022-10-21T04:20:44.591Z,100319.59
2022-10-21T04:23:11.605Z,100320.31
2022-10-21T04:25:38.517Z,100317.44
2022-10-21T04:28:05.463Z,100313.75
2022-10-21T04:30:32.396Z,100315.78
2022-10-21T04:32:59.387Z,100308.94
2022-10-21T04:35:26.595Z,100298.00
2022-10-21T04:37:53.702Z,100305.69
2022-10-21T04:40:20.672Z,100316.91
2022-10-21T04:42:49.529Z,100302.97
2022-10-21T04:45:17.605Z,100310.81
2022-10-21T04:47:44.738Z,100294.84
2022-10-21T04:50:12.314Z,100282.59
2022-10-21T04:52:39.822Z,100282.91
2022-10-21T04:55:15.134Z,100283.53
2022-10-21T04:57:42.761Z,100287.34
2022-10-21T05:00:10.844Z,100281.25
2022-10-21T05:02:38.063Z,100279.81
2022-10-21T05:05:05.779Z,100278.25
2022-10-21T05:07:32.756Z,100273.28
2022-10-21T05:09:59.757Z,100261.75
2022-10-21T05:12:26.675Z,100276.16
2022-10-21T05:14:53.807Z,100263.91
2022-10-21T05:17:21.031Z,100251.97
2022-10-21T05:19:47.943Z,100273.16
2022-10-21T05:22:15.063Z,100274.44
2022-10-21T05:24:42.166Z,100262.94
2022-10-21T05:27:09.197Z,100251.69
2022-10-21T05:29:36.128Z,100265.34
2022-10-21T05:32:03.150Z,100263.81
2022-10-21T05:34:30.047Z,100271.19
2022-10-21T05:36:57.096Z,100266.78
2022-10-21T05:39:24.039Z,100266.22
2022-10-21T05:41:50.992Z,100254.00
2022-10-21T05:44:20.679Z,100262.25
2022-10-21T05:46:47.818Z,100265.94
2022-10-21T05:49:14.804Z,100270.66
2022-10-21T05:51:41.975Z,100255.56
2022-10-21T05:54:08.923Z,100245.63
2022-10-21T05:56:35.930Z,100252.00
2022-10-21T05:59:05.521Z,100242.03
2022-10-21T06:01:36.286Z,100258.25
2022-10-21T06:04:03.522Z,100255.44
2022-10-21T06:06:30.540Z,100266.25
2022-10-21T06:08:57.649Z,100264.69
2022-10-21T06:11:24.953Z,100270.22
2022-10-21T06:13:52.289Z,100281.00
2022-10-21T06:16:19.283Z,100289.13
2022-10-21T06:18:46.172Z,100284.84
2022-10-21T06:21:13.180Z,100283.31
2022-10-21T06:23:40.272Z,100281.88
2022-10-21T06:26:13.871Z,100289.53
2022-10-21T06:28:43.651Z,100280.19
2022-10-21T06:31:18.246Z,100299.78
2022-10-21T06:33:45.583Z,100279.88
2022-10-21T06:36:12.564Z,100296.66
2022-10-21T06:38:39.721Z,100295.94
2022-10-21T06:41:13.103Z,100297.66
2022-10-21T06:43:42.223Z,100290.81
2022-10-21T06:46:12.971Z,100296.38
2022-10-21T06:48:40.453Z,100308.03
2022-10-21T06:51:17.637Z,100305.47
2022-10-21T06:53:45.659Z,100299.88
2022-10-21T06:56:18.425Z,100303.56
2022-10-21T06:58:47.986Z,100310.44
2022-10-21T07:01:47.982Z,100316.06
2022-10-21T07:04:19.980Z,100310.09
2022-10-21T07:06:47.130Z,100313.78
2022-10-21T07:09:14.179Z,100327.28
2022-10-21T07:11:41.214Z,100329.00
2022-10-21T07:14:08.254Z,100323.50
2022-10-21T07:16:36.870Z,100322.47
2022-10-21T07:19:05.847Z,100317.56
2022-10-21T07:21:33.087Z,100311.44
2022-10-21T07:24:00.779Z,100321.81
2022-10-21T07:26:31.495Z,100319.69
2022-10-21T07:29:00.774Z,100320.25
2022-10-21T07:31:31.838Z,100300.78
2022-10-21T07:34:00.995Z,100315.16
2022-10-21T07:36:31.777Z,100310.88
2022-10-21T07:39:03.819Z,100314.88
2022-10-21T07:41:44.668Z,100317.00
2022-10-21T07:44:11.994Z,100315.00
2022-10-21T07:46:40.833Z,100322.28
2022-10-21T07:49:08.720Z,100321.84
2022-10-21T07:51:35.677Z,100325.78
2022-10-21T07:54:03.294Z,100323.22
2022-10-21T07:56:37.398Z,100321.69
2022-10-21T07:59:06.778Z,100310.28
2022-10-21T08:01:36.363Z,100325.75
2022-10-21T08:04:03.801Z,100332.31
2022-10-21T08:06:30.769Z,100325.44
2022-10-21T08:08:57.916Z,100333.84
2022-10-21T08:11:31.863Z,100331.09
2022-10-21T08:13:59.957Z,100317.28
2022-10-21T08:16:27.523Z,100322.69
2022-10-21T08:18:56.811Z,100323.13
2022-10-21T08:21:23.723Z,100313.84
2022-10-21T08:23:50.750Z,100322.63
2022-10-21T08:26:17.810Z,100321.03
2022-10-21T08:28:46.672Z,100319.41
2022-10-21T08:31:19.596Z,100328.91
2022-10-21T08:33:47.606Z,100322.03
2022-10-21T08:36:25.968Z,100321.97
2022-10-21T08:38:53.896Z,100332.44
2022-10-21T08:41:29.705Z,100331.84
2022-10-21T08:44:37.991Z,100331.41
2022-10-21T08:47:17.548Z,100334.75
2022-10-21T08:50:00.949Z,100326.44
2022-10-21T08:52:39.235Z,100317.84
2022-10-21T08:55:35.064Z,100319.88
2022-10-21T08:58:03.508Z,100320.53
2022-10-21T09:00:48.274Z,100309.09
2022-10-21T09:03:15.187Z,100320.84
2022-10-21T09:06:29.759Z,100314.88
2022-10-21T09:09:11.960Z,100309.78
2022-10-21T09:12:06.189Z,100315.66
2022-10-21T09:15:30.042Z,100321.91
2022-10-21T09:18:12.317Z,100315.81
2022-10-21T09:21:06.662Z,100314.13
2022-10-21T09:24:11.812Z,100318.38
2022-10-21T09:26:44.891Z,100318.38
2022-10-21T09:29:27.611Z,100319.94
2022-10-21T09:32:15.470Z,100314.97
2022-10-21T09:35:06.573Z,100313.59
2022-10-21T09:37:40.161Z,100311.22
2022-10-21T09:40:21.006Z,100306.81
2022-10-21T09:42:56.046Z,100314.97
2022-10-21T09:45:37.537Z,100307.81
2022-10-21T09:48:19.942Z,100312.25
2022-10-21T09:50:52.622Z,100309.84
2022-10-21T09:53:28.684Z,100308.66
2022-10-21T09:56:06.811Z,100303.56
2022-10-21T09:58:42.249Z,100299.31
2022-10-21T10:01:16.045Z,100295.44
2022-10-21T10:03:49.968Z,100304.25
2022-10-21T10:06:43.566Z,100309.38
2022-10-21T10:09:29.381Z,100309.06
2022-10-21T10:12:21.048Z,100305.31
2022-10-21T10:14:48.741Z,100313.81
2022-10-21T10:17:44.421Z,100309.91
2022-10-21T10:20:20.600Z,100315.53
2022-10-21T10:22:59.823Z,100316.88
2022-10-21T10:25:35.758Z,100310.09
2022-10-21T10:28:10.649Z,100319.59
2022-10-21T10:30:43.529Z,100324.53
2022-10-21T10:33:19.680Z,100313.34
2022-10-21T10:36:05.605Z,100309.59
2022-10-21T10:38:51.664Z,100306.88
2022-10-21T10:41:19.290Z,100308.09
2022-10-21T10:43:54.926Z,100313.19
2022-10-21T10:46:34.066Z,100308.94
2022-10-21T10:49:23.102Z,100300.47
2022-10-21T10:52:30.421Z,100306.09
2022-10-21T10:55:12.612Z,100307.97
2022-10-21T10:57:58.559Z,100305.25
2022-10-21T11:00:33.967Z,100309.31
2022-10-21T11:03:07.902Z,100308.16
2022-10-21T11:05:45.390Z,100294.88
2022-10-21T11:08:23.435Z,100303.56
2022-10-21T11:10:56.619Z,100312.22
2022-10-21T11:13:25.122Z,100309.31
2022-10-21T11:16:29.580Z,100297.28
2022-10-21T11:19:15.242Z,100302.53
2022-10-21T11:21:49.211Z,100303.22
2022-10-21T11:24:45.532Z,100304.06
2022-10-21T11:27:32.330Z,100304.75
2022-10-21T11:30:19.681Z,100299.13
2022-10-21T11:33:17.379Z,100298.13
2022-10-21T11:36:40.283Z,100298.81
2022-10-21T11:39:42.940Z,100290.97
2022-10-21T11:42:23.154Z,100291.84
2022-10-21T11:45:30.480Z,100300.31
2022-10-21T11:48:40.241Z,100290.97
2022-10-21T11:51:28.648Z,100299.31
2022-10-21T11:54:37.353Z,100292.47
2022-10-21T11:57:13.314Z,100305.59
2022-10-21T12:00:04.923Z,100297.09
2022-10-21T12:02:43.003Z,100306.59
2022-10-21T12:05:44.612Z,100298.28
2022-10-21T12:08:27.214Z,100305.44
2022-10-21T12:11:06.067Z,100300.81
2022-10-21T12:13:44.803Z,100296.91
2022-10-21T12:16:27.531Z,100294.88
2022-10-21T12:19:00.161Z,100303.72
2022-10-21T12:21:34.773Z,100291.63
2022-10-21T12:24:27.946Z,100299.78
2022-10-21T12:27:19.601Z,100295.34
2022-10-21T12:31:02.354Z,100297.38
2022-10-21T12:33:45.559Z,100302.81
2022-10-21T12:36:24.725Z,100302.00
2022-10-21T12:38:57.737Z,100301.47
2022-10-21T12:41:24.541Z,100304.91
2022-10-21T12:44:01.810Z,100299.44
2022-10-21T12:46:39.960Z,100309.66
2022-10-21T12:49:30.529Z,100307.13
2022-10-21T12:52:10.788Z,100302.69
2022-10-21T12:54:43.628Z,100309.16
2022-10-21T12:57:43.025Z,100302.84
2022-10-21T13:00:27.111Z,100304.03
2022-10-21T13:03:12.705Z,100303.38
2022-10-21T13:05:39.591Z,100309.31
2022-10-21T13:08:24.421Z,100309.00
2022-10-21T13:11:03.937Z,100305.59
2022-10-21T13:13:38.770Z,100303.56
2022-10-21T13:16:20.796Z,100294.19
2022-10-21T13:18:51.521Z,100297.09
2022-10-21T13:21:29.455Z,100302.03
2022-10-21T13:24:36.934Z,100292.84
2022-10-21T13:30:00.787Z,100295.91
2022-10-21T13:32:33.832Z,100299.28
2022-10-21T13:35:20.855Z,100312.22
2022-10-21T13:37:57.391Z,100322.34
2022-10-21T13:40:31.856Z,100322.50
2022-10-21T13:43:28.991Z,100316.22
2022-10-21T13:46:32.879Z,100315.84
2022-10-21T13:49:00.699Z,100314.28
2022-10-21T13:51:35.761Z,100321.78
2022-10-21T13:56:53.936Z,100320.91
2022-10-21T13:59:34.615Z,100323.97
2022-10-21T14:02:02.353Z,100315.63
2022-10-21T14:04:42.560Z,100295.41
2022-10-21T14:07:26.672Z,100304.44
2022-10-21T14:09:58.671Z,100298.50
2022-10-21T14:12:34.660Z,100312.59
2022-10-21T14:15:39.051Z,100320.47
2022-10-21T14:18:06.730Z,100317.88
2022-10-21T14:20:37.246Z,100312.47
2022-10-21T14:23:08.265Z,100311.44
2022-10-21T14:25:35.667Z,100314.66
2022-10-21T14:28:04.771Z,100309.09
2022-10-21T14:30:36.774Z,100302.63
2022-10-21T14:33:06.447Z,100296.16
2022-10-21T14:35:33.494Z,100306.38
2022-10-21T14:38:03.883Z,100304.50
2022-10-21T14:40:36.611Z,100308.72
2022-10-21T14:43:13.299Z,100307.22
2022-10-21T14:45:50.521Z,100321.50
2022-10-21T14:48:36.444Z,100317.06
2022-10-21T14:51:21.220Z,100320.63
2022-10-21T14:53:59.310Z,100312.81
2022-10-21T14:56:34.268Z,100316.88
2022-10-21T14:59:26.077Z,100314.34
2022-10-21T15:01:53.281Z,100325.22
2022-10-21T15:04:54.426Z,100311.78
2022-10-21T15:07:33.895Z,100322.66
2022-10-21T15:10:03.804Z,100327.75
2022-10-21T15:12:53.908Z,100311.94
2022-10-21T15:15:54.226Z,100303.78
2022-10-21T15:18:47.730Z,100316.88
2022-10-21T15:21:32.792Z,100318.59
2022-10-21T15:24:00.744Z,100310.78
2022-10-21T15:26:40.446Z,100318.25
2022-10-21T15:29:13.873Z,100325.72
2022-10-21T15:31:41.250Z,100313.63
2022-10-21T15:34:15.958Z,100327.44
2022-10-21T15:36:44.067Z,100332.00
2022-10-21T15:39:11.888Z,100319.44
2022-10-21T15:41:39.528Z,100326.03
2022-10-21T15:44:28.917Z,100325.53
2022-10-21T15:47:29.989Z,100307.97
2022-10-21T15:49:57.149Z,100313.09
2022-10-21T15:52:24.567Z,100320.25
2022-10-21T15:54:57.220Z,100323.78
2022-10-21T15:57:24.795Z,100317.00
2022-10-21T15:59:53.094Z,100304.22
2022-10-21T16:02:29.498Z,100315.31
2022-10-21T16:04:56.500Z,100314.97
2022-10-21T16:07:36.897Z,100331.78
2022-10-21T16:10:29.346Z,100323.94
2022-10-21T16:13:01.766Z,100333.63
2022-10-21T16:15:29.925Z,100316.78
2022-10-21T16:18:00.632Z,100320.34
2022-10-21T16:20:35.564Z,100326.81
2022-10-21T16:23:03.496Z,100332.25
2022-10-21T16:25:34.151Z,100339.38
2022-10-21T16:28:02.045Z,100326.28
2022-10-21T16:30:36.789Z,100335.44
2022-10-21T16:33:04.916Z,100327.09
2022-10-21T16:35:31.870Z,100323.00
2022-10-21T16:37:59.357Z,100321.63
2022-10-21T16:40:31.556Z,100336.91
2022-10-21T16:42:59.135Z,100314.78
2022-10-21T16:45:32.091Z,100321.06
2022-10-21T16:48:00.963Z,100341.25
2022-10-21T16:50:46.049Z,100331.19
2022-10-21T16:53:16.684Z,100335.78
2022-10-21T16:55:43.964Z,100330.09
2022-10-21T16:58:11.008Z,100336.06
2022-10-21T17:00:38.105Z,100340.97
2022-10-21T17:03:05.243Z,100325.78
2022-10-21T17:05:32.195Z,100339.25
2022-10-21T17:08:00.071Z,100324.31
2022-10-21T17:10:31.873Z,100325.97
2022-10-21T17:13:01.772Z,100324.09
2022-10-21T17:15:37.072Z,100318.09
2022-10-21T17:18:04.500Z,100321.84
2022-10-21T17:20:34.886Z,100343.97
2022-10-21T17:23:07.774Z,100323.72
2022-10-21T17:25:38.133Z,100337.66
2022-10-21T17:28:08.839Z,100349.22
2022-10-21T17:30:36.127Z,100347.88
2022-10-21T17:33:03.235Z,100352.63
2022-10-21T17:35:30.276Z,100351.94
2022-10-21T17:37:57.419Z,100359.06
2022-10-21T17:40:27.356Z,100362.78
2022-10-21T17:42:54.382Z,100364.44
2022-10-21T17:45:22.463Z,100357.31
2022-10-21T17:47:49.861Z,100348.09
2022-10-21T17:50:23.172Z,100359.81
2022-10-21T17:52:55.819Z,100355.38
2022-10-21T17:55:23.455Z,100359.09
2022-10-21T17:57:50.343Z,100359.25
2022-10-21T18:00:17.518Z,100357.56
2022-10-21T18:02:44.430Z,100360.44
2022-10-21T18:05:11.521Z,100360.75
2022-10-21T18:07:38.789Z,100355.66
2022-10-21T18:10:07.198Z,100361.22
2022-10-21T18:12:35.408Z,100364.41
2022-10-21T18:15:02.870Z,100355.03
2022-10-21T18:17:29.810Z,100356.19
2022-10-21T18:19:56.797Z,100374.72
2022-10-21T18:22:24.121Z,100380.16
2022-10-21T18:24:52.718Z,100381.03
2022-10-21T18:27:19.987Z,100380.47
2022-10-21T18:29:47.133Z,100368.69
2022-10-21T18:32:15.848Z,100385.22
2022-10-21T18:34:42.931Z,100383.50
2022-10-21T18:37:10.128Z,100389.09
2022-10-21T18:39:37.112Z,100385.66
2022-10-21T18:42:04.127Z,100390.56
2022-10-21T18:44:31.101Z,100395.66
2022-10-21T18:46:57.999Z,100394.81
2022-10-21T18:49:25.066Z,100390.09
2022-10-21T18:51:52.025Z,100392.63
2022-10-21T18:54:19.016Z,100399.59
2022-10-21T18:56:45.901Z,100396.44
2022-10-21T18:59:14.339Z,100388.75
2022-10-21T19:01:41.424Z,100388.72
2022-10-21T19:04:09.059Z,100394.91
2022-10-21T19:06:46.110Z,100383.16
2022-10-21T19:09:22.634Z,100383.03
2022-10-21T19:11:50.123Z,100385.22
2022-10-21T19:14:17.583Z,100373.59
2022-10-21T19:16:46.903Z,100380.75
2022-10-21T19:19:15.603Z,100382.59
2022-10-21T19:21:42.729Z,100371.66
2022-10-21T19:24:10.519Z,100383.53
2022-10-21T19:26:40.444Z,100380.81
2022-10-21T19:29:17.741Z,100368.53
2022-10-21T19:34:21.056Z,100383.09
2022-10-21T19:36:48.611Z,100379.44
2022-10-21T19:39:16.268Z,100385.56
2022-10-21T19:41:43.334Z,100382.31
2022-10-21T19:44:10.290Z,100387.75
2022-10-21T19:46:37.560Z,100388.22
2022-10-21T19:49:07.830Z,100392.41
2022-10-21T19:51:35.634Z,100398.16
2022-10-21T19:54:08.157Z,100402.88
2022-10-21T19:56:35.755Z,100395.81
2022-10-21T19:59:03.446Z,100400.63
2022-10-21T20:01:33.059Z,100409.31
2022-10-21T20:04:01.929Z,100400.63
2022-10-21T20:06:35.254Z,100410.63
2022-10-21T20:09:12.234Z,100418.22
2022-10-21T20:11:40.866Z,100429.38
2022-10-21T20:14:08.214Z,100413.19
2022-10-21T20:16:43.643Z,100415.19
2022-10-21T20:19:12.370Z,100409.84
2022-10-21T20:21:39.896Z,100424.63
2022-10-21T20:24:07.724Z,100426.78
2022-10-21T20:26:34.729Z,100418.53
2022-10-21T20:29:02.274Z,100422.69
2022-10-21T20:31:30.388Z,100414.44
2022-10-21T20:33:57.587Z,100423.25
2022-10-21T20:36:28.475Z,100426.66
2022-10-21T20:38:59.103Z,100414.56
2022-10-21T20:41:33.491Z,100411.94
2022-10-21T20:44:01.794Z,100425.66
2022-10-21T20:46:32.384Z,100427.19
2022-10-21T20:48:59.385Z,100424.41
2022-10-21T20:51:29.433Z,100439.97
2022-10-21T20:54:06.895Z,100427.56
2022-10-21T20:56:39.779Z,100430.88
2022-10-21T20:59:10.005Z,100431.78
2022-10-21T21:01:41.767Z,100427.53
2022-10-21T21:04:13.267Z,100430.97
2022-10-21T21:06:44.626Z,100426.72
2022-10-21T21:12:03.248Z,100439.88
2022-10-21T21:14:30.994Z,100445.56
2022-10-21T21:16:58.318Z,100429.38
2022-10-21T21:19:25.926Z,100448.72
2022-10-21T21:21:58.307Z,100447.00
2022-10-21T21:24:25.309Z,100465.53
2022-10-21T21:26:52.212Z,100461.81
2022-10-21T21:29:21.418Z,100447.44
2022-10-21T21:31:48.746Z,100458.69
2022-10-21T21:34:15.750Z,100455.97
2022-10-21T21:36:42.719Z,100457.28
2022-10-21T21:39:11.490Z,100457.28
2022-10-21T21:41:38.593Z,100460.28
2022-10-21T21:44:06.227Z,100458.72
2022-10-21T21:46:35.798Z,100458.16
2022-10-21T21:49:06.441Z,100468.00
2022-10-21T21:51:39.192Z,100460.03
2022-10-21T21:54:07.983Z,100450.09
2022-10-21T21:56:35.610Z,100462.47
2022-10-21T21:59:02.971Z,100460.75
2022-10-21T22:01:30.237Z,100462.03
2022-10-21T22:03:57.796Z,100450.25
2022-10-21T22:06:29.157Z,100467.22
2022-10-21T22:08:56.622Z,100461.69
2022-10-21T22:11:26.875Z,100462.66
2022-10-21T22:13:53.936Z,100461.41
2022-10-21T22:16:24.123Z,100473.78
2022-10-21T22:18:51.416Z,100466.09
2022-10-21T22:21:18.980Z,100464.81
2022-10-21T22:23:47.639Z,100462.25
2022-10-21T22:26:16.038Z,100454.56
2022-10-21T22:28:44.155Z,100464.09
2022-10-21T22:31:15.148Z,100467.97
2022-10-21T22:36:11.295Z,100460.16
2022-10-21T22:38:38.239Z,100447.31
2022-10-21T22:41:09.825Z,100449.88
2022-10-21T22:43:39.148Z,100454.84
2022-10-21T22:48:53.096Z,100454.28
2022-10-21T22:51:20.811Z,100466.84
2022-10-21T22:53:53.481Z,100459.88
2022-10-21T22:56:24.549Z,100477.66
2022-10-21T22:58:51.649Z,100455.69
2022-10-21T23:01:18.795Z,100464.69
2022-10-21T23:03:45.767Z,100456.28
2022-10-21T23:06:12.707Z,100450.03
2022-10-21T23:08:39.713Z,100446.03
2022-10-21T23:11:06.852Z,100455.88
2022-10-21T23:13:33.749Z,100450.00
2022-10-21T23:16:00.770Z,100466.13
2022-10-21T23:18:28.020Z,100465.13
2022-10-21T23:20:55.023Z,100453.75
2022-10-21T23:23:22.151Z,100472.22
2022-10-21T23:25:49.299Z,100473.78
2022-10-21T23:30:44.314Z,100482.06
2022-10-21T23:33:11.371Z,100473.66
2022-10-21T23:35:38.343Z,100473.66
2022-10-21T23:38:05.551Z,100481.50
2022-10-21T23:40:32.813Z,100478.50
2022-10-21T23:42:59.691Z,100469.81
2022-10-21T23:45:26.731Z,100474.50
2022-10-21T23:47:56.585Z,100468.66
2022-10-21T23:50:24.180Z,100477.47
2022-10-21T23:52:51.087Z,100472.50
2022-10-21T23:55:18.801Z,100478.75
2022-10-21T23:57:46.009Z,100469.66
